sensor_id;sensor_type;location;lat;lon;timestamp;P1;durP1;ratioP1;P2;durP2;ratioP2
84893;SDS011;75409;50.000;9.432;2024-02-23T00:00:09;1.43;;;1.33;;
84893;SDS011;75409;50.000;9.432;2024-02-23T00:02:35;1.42;;;1.33;;
84893;SDS011;75409;50.000;9.432;2024-02-23T00:05:01;2.03;;;1.23;;
84893;SDS011;75409;50.000;9.432;2024-02-23T00:07:26;1.63;;;1.53;;
84893;SDS011;75409;50.000;9.432;2024-02-23T00:09:51;1.50;;;1.40;;
84893;SDS011;75409;50.000;9.432;2024-02-23T00:12:17;1.83;;;1.73;;
84893;SDS011;75409;50.000;9.432;2024-02-23T00:14:42;3.27;;;1.37;;
84893;SDS011;75409;50.000;9.432;2024-02-23T00:17:07;1.35;;;1.17;;
84893;SDS011;75409;50.000;9.432;2024-02-23T00:19:33;2.72;;;1.30;;
84893;SDS011;75409;50.000;9.432;2024-02-23T00:21:59;1.02;;;1.02;;
84893;SDS011;75409;50.000;9.432;2024-02-23T00:24:27;1.52;;;1.25;;
84893;SDS011;75409;50.000;9.432;2024-02-23T00:26:53;2.83;;;1.40;;
84893;SDS011;75409;50.000;9.432;2024-02-23T00:29:18;1.42;;;1.33;;
84893;SDS011;75409;50.000;9.432;2024-02-23T00:31:44;2.33;;;2.13;;
84893;SDS011;75409;50.000;9.432;2024-02-23T00:34:12;1.73;;;1.63;;
84893;SDS011;75409;50.000;9.432;2024-02-23T00:36:38;1.25;;;1.15;;
84893;SDS011;75409;50.000;9.432;2024-02-23T00:39:05;1.73;;;1.45;;
84893;SDS011;75409;50.000;9.432;2024-02-23T00:41:32;1.80;;;1.70;;
84893;SDS011;75409;50.000;9.432;2024-02-23T00:43:57;2.58;;;2.38;;
84893;SDS011;75409;50.000;9.432;2024-02-23T00:46:23;1.07;;;0.97;;
84893;SDS011;75409;50.000;9.432;2024-02-23T00:48:48;3.42;;;1.40;;
84893;SDS011;75409;50.000;9.432;2024-02-23T00:51:13;2.83;;;1.40;;
84893;SDS011;75409;50.000;9.432;2024-02-23T00:53:39;1.00;;;0.87;;
84893;SDS011;75409;50.000;9.432;2024-02-23T00:56:04;1.05;;;1.00;;
84893;SDS011;75409;50.000;9.432;2024-02-23T00:58:30;3.08;;;1.38;;
84893;SDS011;75409;50.000;9.432;2024-02-23T01:00:55;1.90;;;1.33;;
84893;SDS011;75409;50.000;9.432;2024-02-23T01:03:20;1.43;;;1.17;;
84893;SDS011;75409;50.000;9.432;2024-02-23T01:05:46;1.58;;;1.38;;
84893;SDS011;75409;50.000;9.432;2024-02-23T01:08:11;1.70;;;1.40;;
84893;SDS011;75409;50.000;9.432;2024-02-23T01:10:36;1.43;;;1.30;;
84893;SDS011;75409;50.000;9.432;2024-02-23T01:13:02;1.40;;;1.30;;
84893;SDS011;75409;50.000;9.432;2024-02-23T01:15:27;11.23;;;1.35;;
84893;SDS011;75409;50.000;9.432;2024-02-23T01:17:52;1.80;;;1.43;;
84893;SDS011;75409;50.000;9.432;2024-02-23T01:20:18;1.40;;;1.27;;
84893;SDS011;75409;50.000;9.432;2024-02-23T01:22:43;1.40;;;1.40;;
84893;SDS011;75409;50.000;9.432;2024-02-23T01:25:08;3.03;;;1.35;;
84893;SDS011;75409;50.000;9.432;2024-02-23T01:27:34;1.20;;;1.03;;
84893;SDS011;75409;50.000;9.432;2024-02-23T01:29:59;1.10;;;1.00;;
84893;SDS011;75409;50.000;9.432;2024-02-23T01:32:24;2.05;;;1.17;;
84893;SDS011;75409;50.000;9.432;2024-02-23T01:34:50;1.20;;;1.10;;
84893;SDS011;75409;50.000;9.432;2024-02-23T01:37:15;1.50;;;1.30;;
84893;SDS011;75409;50.000;9.432;2024-02-23T01:39:40;1.73;;;0.93;;
84893;SDS011;75409;50.000;9.432;2024-02-23T01:42:06;2.27;;;1.10;;
84893;SDS011;75409;50.000;9.432;2024-02-23T01:44:31;1.23;;;1.07;;
84893;SDS011;75409;50.000;9.432;2024-02-23T01:46:57;2.05;;;1.20;;
84893;SDS011;75409;50.000;9.432;2024-02-23T01:49:22;2.05;;;1.80;;
84893;SDS011;75409;50.000;9.432;2024-02-23T01:51:54;1.20;;;1.10;;
84893;SDS011;75409;50.000;9.432;2024-02-23T01:54:22;2.53;;;1.42;;
84893;SDS011;75409;50.000;9.432;2024-02-23T01:56:48;1.65;;;1.55;;
84893;SDS011;75409;50.000;9.432;2024-02-23T01:59:14;4.03;;;1.23;;
84893;SDS011;75409;50.000;9.432;2024-02-23T02:01:39;0.95;;;0.95;;
84893;SDS011;75409;50.000;9.432;2024-02-23T02:04:08;1.60;;;1.10;;
84893;SDS011;75409;50.000;9.432;2024-02-23T02:06:33;1.27;;;1.13;;
84893;SDS011;75409;50.000;9.432;2024-02-23T02:08:58;1.10;;;0.90;;
84893;SDS011;75409;50.000;9.432;2024-02-23T02:11:24;3.30;;;1.23;;
84893;SDS011;75409;50.000;9.432;2024-02-23T02:13:49;1.83;;;1.00;;
84893;SDS011;75409;50.000;9.432;2024-02-23T02:16:14;2.10;;;1.33;;
84893;SDS011;75409;50.000;9.432;2024-02-23T02:18:40;1.07;;;1.00;;
84893;SDS011;75409;50.000;9.432;2024-02-23T02:21:05;1.63;;;1.10;;
84893;SDS011;75409;50.000;9.432;2024-02-23T02:23:30;1.87;;;1.50;;
84893;SDS011;75409;50.000;9.432;2024-02-23T02:25:56;1.57;;;1.17;;
84893;SDS011;75409;50.000;9.432;2024-02-23T02:28:22;2.00;;;1.25;;
84893;SDS011;75409;50.000;9.432;2024-02-23T02:30:49;2.53;;;1.02;;
84893;SDS011;75409;50.000;9.432;2024-02-23T02:33:15;6.35;;;1.45;;
84893;SDS011;75409;50.000;9.432;2024-02-23T02:35:40;1.77;;;1.05;;
84893;SDS011;75409;50.000;9.432;2024-02-23T02:38:06;5.75;;;1.23;;
84893;SDS011;75409;50.000;9.432;2024-02-23T02:40:31;0.77;;;0.77;;
84893;SDS011;75409;50.000;9.432;2024-02-23T02:42:57;1.40;;;0.98;;
84893;SDS011;75409;50.000;9.432;2024-02-23T02:45:22;2.10;;;1.27;;
84893;SDS011;75409;50.000;9.432;2024-02-23T02:47:47;1.73;;;1.00;;
84893;SDS011;75409;50.000;9.432;2024-02-23T02:50:13;1.30;;;1.20;;
84893;SDS011;75409;50.000;9.432;2024-02-23T02:52:38;1.35;;;1.20;;
84893;SDS011;75409;50.000;9.432;2024-02-23T02:55:04;1.40;;;1.00;;
84893;SDS011;75409;50.000;9.432;2024-02-23T02:57:29;2.22;;;1.00;;
84893;SDS011;75409;50.000;9.432;2024-02-23T02:59:55;1.65;;;1.08;;
84893;SDS011;75409;50.000;9.432;2024-02-23T03:02:20;2.55;;;1.20;;
84893;SDS011;75409;50.000;9.432;2024-02-23T03:04:49;3.77;;;1.30;;
84893;SDS011;75409;50.000;9.432;2024-02-23T03:07:15;1.13;;;0.95;;
84893;SDS011;75409;50.000;9.432;2024-02-23T03:09:41;1.27;;;1.02;;
84893;SDS011;75409;50.000;9.432;2024-02-23T03:12:06;0.90;;;0.90;;
84893;SDS011;75409;50.000;9.432;2024-02-23T03:14:31;2.75;;;1.02;;
84893;SDS011;75409;50.000;9.432;2024-02-23T03:16:58;2.00;;;1.77;;
84893;SDS011;75409;50.000;9.432;2024-02-23T03:19:24;2.10;;;1.73;;
84893;SDS011;75409;50.000;9.432;2024-02-23T03:21:50;1.25;;;0.77;;
84893;SDS011;75409;50.000;9.432;2024-02-23T03:24:15;1.45;;;0.93;;
84893;SDS011;75409;50.000;9.432;2024-02-23T03:26:41;1.60;;;0.90;;
84893;SDS011;75409;50.000;9.432;2024-02-23T03:29:06;1.00;;;1.00;;
84893;SDS011;75409;50.000;9.432;2024-02-23T03:31:31;2.47;;;1.30;;
84893;SDS011;75409;50.000;9.432;2024-02-23T03:33:57;0.90;;;0.90;;
84893;SDS011;75409;50.000;9.432;2024-02-23T03:36:22;2.43;;;1.37;;
84893;SDS011;75409;50.000;9.432;2024-02-23T03:38:47;1.27;;;0.87;;
84893;SDS011;75409;50.000;9.432;2024-02-23T03:41:13;3.30;;;1.20;;
84893;SDS011;75409;50.000;9.432;2024-02-23T03:43:38;1.92;;;1.05;;
84893;SDS011;75409;50.000;9.432;2024-02-23T03:46:03;0.77;;;0.77;;
84893;SDS011;75409;50.000;9.432;2024-02-23T03:48:31;3.08;;;1.23;;
84893;SDS011;75409;50.000;9.432;2024-02-23T03:50:57;2.08;;;1.27;;
84893;SDS011;75409;50.000;9.432;2024-02-23T03:53:22;1.90;;;0.98;;
84893;SDS011;75409;50.000;9.432;2024-02-23T03:55:47;0.87;;;0.80;;
84893;SDS011;75409;50.000;9.432;2024-02-23T03:58:13;0.87;;;0.87;;
84893;SDS011;75409;50.000;9.432;2024-02-23T04:00:38;1.57;;;1.43;;
84893;SDS011;75409;50.000;9.432;2024-02-23T04:03:03;2.63;;;1.20;;
84893;SDS011;75409;50.000;9.432;2024-02-23T04:05:29;1.40;;;1.13;;
84893;SDS011;75409;50.000;9.432;2024-02-23T04:07:54;1.23;;;1.07;;
84893;SDS011;75409;50.000;9.432;2024-02-23T04:10:19;6.03;;;1.27;;
84893;SDS011;75409;50.000;9.432;2024-02-23T04:12:48;1.73;;;1.23;;
84893;SDS011;75409;50.000;9.432;2024-02-23T04:15:13;3.63;;;1.95;;
84893;SDS011;75409;50.000;9.432;2024-02-23T04:17:39;1.05;;;0.95;;
84893;SDS011;75409;50.000;9.432;2024-02-23T04:20:07;2.73;;;1.43;;
84893;SDS011;75409;50.000;9.432;2024-02-23T04:22:34;2.47;;;1.63;;
84893;SDS011;75409;50.000;9.432;2024-02-23T04:25:00;1.42;;;1.33;;
84893;SDS011;75409;50.000;9.432;2024-02-23T04:27:26;1.83;;;1.50;;
84893;SDS011;75409;50.000;9.432;2024-02-23T04:29:51;1.73;;;1.53;;
84893;SDS011;75409;50.000;9.432;2024-02-23T04:32:16;1.52;;;1.40;;
84893;SDS011;75409;50.000;9.432;2024-02-23T04:34:42;1.33;;;0.97;;
84893;SDS011;75409;50.000;9.432;2024-02-23T04:37:07;1.35;;;1.25;;
84893;SDS011;75409;50.000;9.432;2024-02-23T04:39:33;1.15;;;1.10;;
84893;SDS011;75409;50.000;9.432;2024-02-23T04:41:58;1.92;;;1.10;;
84893;SDS011;75409;50.000;9.432;2024-02-23T04:44:24;1.90;;;1.47;;
84893;SDS011;75409;50.000;9.432;2024-02-23T04:46:49;3.45;;;1.58;;
84893;SDS011;75409;50.000;9.432;2024-02-23T04:49:16;1.73;;;1.45;;
84893;SDS011;75409;50.000;9.432;2024-02-23T04:51:41;1.38;;;0.93;;
84893;SDS011;75409;50.000;9.432;2024-02-23T04:54:09;2.07;;;1.10;;
84893;SDS011;75409;50.000;9.432;2024-02-23T04:56:35;3.03;;;1.77;;
84893;SDS011;75409;50.000;9.432;2024-02-23T04:59:00;2.50;;;1.15;;
84893;SDS011;75409;50.000;9.432;2024-02-23T05:01:25;2.20;;;1.17;;
84893;SDS011;75409;50.000;9.432;2024-02-23T05:03:51;5.43;;;1.43;;
84893;SDS011;75409;50.000;9.432;2024-02-23T05:06:17;2.40;;;1.17;;
84893;SDS011;75409;50.000;9.432;2024-02-23T05:08:42;2.38;;;1.38;;
84893;SDS011;75409;50.000;9.432;2024-02-23T05:11:08;2.20;;;1.17;;
84893;SDS011;75409;50.000;9.432;2024-02-23T05:13:33;2.78;;;1.25;;
84893;SDS011;75409;50.000;9.432;2024-02-23T05:15:58;1.33;;;1.20;;
84893;SDS011;75409;50.000;9.432;2024-02-23T05:18:24;2.45;;;1.70;;
84893;SDS011;75409;50.000;9.432;2024-02-23T05:20:49;1.80;;;1.20;;
84893;SDS011;75409;50.000;9.432;2024-02-23T05:23:14;2.35;;;1.17;;
84893;SDS011;75409;50.000;9.432;2024-02-23T05:25:43;1.65;;;1.40;;
84893;SDS011;75409;50.000;9.432;2024-02-23T05:28:08;2.78;;;1.30;;
84893;SDS011;75409;50.000;9.432;2024-02-23T05:30:33;1.30;;;1.20;;
84893;SDS011;75409;50.000;9.432;2024-02-23T05:32:59;5.05;;;1.23;;
84893;SDS011;75409;50.000;9.432;2024-02-23T05:35:24;1.80;;;1.55;;
84893;SDS011;75409;50.000;9.432;2024-02-23T05:37:51;1.10;;;0.95;;
84893;SDS011;75409;50.000;9.432;2024-02-23T05:40:16;2.85;;;1.83;;
84893;SDS011;75409;50.000;9.432;2024-02-23T05:42:45;3.00;;;1.58;;
84893;SDS011;75409;50.000;9.432;2024-02-23T05:45:24;2.67;;;1.52;;
84893;SDS011;75409;50.000;9.432;2024-02-23T05:47:49;1.67;;;1.20;;
84893;SDS011;75409;50.000;9.432;2024-02-23T05:50:16;2.25;;;1.20;;
84893;SDS011;75409;50.000;9.432;2024-02-23T05:52:41;4.72;;;1.45;;
84893;SDS011;75409;50.000;9.432;2024-02-23T05:55:06;3.30;;;1.42;;
84893;SDS011;75409;50.000;9.432;2024-02-23T05:57:33;1.42;;;1.25;;
84893;SDS011;75409;50.000;9.432;2024-02-23T05:59:58;2.40;;;1.30;;
84893;SDS011;75409;50.000;9.432;2024-02-23T06:02:23;1.57;;;1.00;;
84893;SDS011;75409;50.000;9.432;2024-02-23T06:04:49;1.88;;;0.98;;
84893;SDS011;75409;50.000;9.432;2024-02-23T06:07:14;2.47;;;1.00;;
84893;SDS011;75409;50.000;9.432;2024-02-23T06:09:43;1.48;;;1.38;;
84893;SDS011;75409;50.000;9.432;2024-02-23T06:12:08;4.97;;;1.52;;
84893;SDS011;75409;50.000;9.432;2024-02-23T06:14:34;4.22;;;1.60;;
84893;SDS011;75409;50.000;9.432;2024-02-23T06:17:00;6.00;;;1.70;;
84893;SDS011;75409;50.000;9.432;2024-02-23T06:19:25;4.60;;;1.23;;
84893;SDS011;75409;50.000;9.432;2024-02-23T06:21:50;1.57;;;1.30;;
84893;SDS011;75409;50.000;9.432;2024-02-23T06:24:16;3.20;;;2.17;;
84893;SDS011;75409;50.000;9.432;2024-02-23T06:26:42;4.13;;;2.03;;
84893;SDS011;75409;50.000;9.432;2024-02-23T06:29:07;3.53;;;1.83;;
84893;SDS011;75409;50.000;9.432;2024-02-23T06:31:37;2.72;;;1.58;;
84893;SDS011;75409;50.000;9.432;2024-02-23T06:34:03;2.45;;;1.85;;
84893;SDS011;75409;50.000;9.432;2024-02-23T06:36:29;3.97;;;2.25;;
84893;SDS011;75409;50.000;9.432;2024-02-23T06:38:55;3.15;;;1.80;;
84893;SDS011;75409;50.000;9.432;2024-02-23T06:41:20;3.22;;;1.40;;
84893;SDS011;75409;50.000;9.432;2024-02-23T06:43:45;2.65;;;1.52;;
84893;SDS011;75409;50.000;9.432;2024-02-23T06:46:11;1.95;;;1.85;;
84893;SDS011;75409;50.000;9.432;2024-02-23T06:48:39;3.45;;;1.45;;
84893;SDS011;75409;50.000;9.432;2024-02-23T06:51:06;3.92;;;2.25;;
84893;SDS011;75409;50.000;9.432;2024-02-23T06:53:36;2.08;;;1.13;;
84893;SDS011;75409;50.000;9.432;2024-02-23T06:56:03;3.58;;;1.63;;
84893;SDS011;75409;50.000;9.432;2024-02-23T06:58:32;3.33;;;1.30;;
84893;SDS011;75409;50.000;9.432;2024-02-23T07:00:57;4.05;;;1.42;;
84893;SDS011;75409;50.000;9.432;2024-02-23T07:03:22;1.30;;;1.15;;
84893;SDS011;75409;50.000;9.432;2024-02-23T07:05:49;1.52;;;1.42;;
84893;SDS011;75409;50.000;9.432;2024-02-23T07:08:16;1.45;;;1.20;;
84893;SDS011;75409;50.000;9.432;2024-02-23T07:10:42;6.40;;;3.27;;
84893;SDS011;75409;50.000;9.432;2024-02-23T07:13:07;11.67;;;6.70;;
84893;SDS011;75409;50.000;9.432;2024-02-23T07:15:33;19.10;;;6.20;;
84893;SDS011;75409;50.000;9.432;2024-02-23T07:18:02;9.32;;;5.65;;
84893;SDS011;75409;50.000;9.432;2024-02-23T07:20:35;4.63;;;2.13;;
84893;SDS011;75409;50.000;9.432;2024-02-23T07:23:01;5.10;;;3.03;;
84893;SDS011;75409;50.000;9.432;2024-02-23T07:25:26;2.90;;;2.15;;
84893;SDS011;75409;50.000;9.432;2024-02-23T07:27:52;6.07;;;3.28;;
84893;SDS011;75409;50.000;9.432;2024-02-23T07:30:17;4.05;;;2.53;;
84893;SDS011;75409;50.000;9.432;2024-02-23T07:32:44;2.63;;;1.48;;
84893;SDS011;75409;50.000;9.432;2024-02-23T07:35:11;2.00;;;1.45;;
84893;SDS011;75409;50.000;9.432;2024-02-23T07:37:36;2.22;;;1.75;;
84893;SDS011;75409;50.000;9.432;2024-02-23T07:40:02;5.85;;;2.42;;
84893;SDS011;75409;50.000;9.432;2024-02-23T07:42:29;11.90;;;6.07;;
84893;SDS011;75409;50.000;9.432;2024-02-23T07:44:55;6.45;;;3.70;;
84893;SDS011;75409;50.000;9.432;2024-02-23T07:47:21;4.75;;;2.63;;
84893;SDS011;75409;50.000;9.432;2024-02-23T07:49:46;4.07;;;2.13;;
84893;SDS011;75409;50.000;9.432;2024-02-23T07:52:11;3.10;;;1.55;;
84893;SDS011;75409;50.000;9.432;2024-02-23T07:54:37;2.27;;;1.60;;
84893;SDS011;75409;50.000;9.432;2024-02-23T07:57:02;2.80;;;1.73;;
84893;SDS011;75409;50.000;9.432;2024-02-23T07:59:30;2.30;;;1.85;;
84893;SDS011;75409;50.000;9.432;2024-02-23T08:01:56;4.15;;;2.17;;
84893;SDS011;75409;50.000;9.432;2024-02-23T08:04:21;2.03;;;1.45;;
84893;SDS011;75409;50.000;9.432;2024-02-23T08:06:47;1.80;;;1.40;;
84893;SDS011;75409;50.000;9.432;2024-02-23T08:09:14;3.38;;;2.25;;
84893;SDS011;75409;50.000;9.432;2024-02-23T08:11:39;4.45;;;2.58;;
84893;SDS011;75409;50.000;9.432;2024-02-23T08:14:04;2.27;;;1.50;;
84893;SDS011;75409;50.000;9.432;2024-02-23T08:16:30;3.77;;;1.50;;
84893;SDS011;75409;50.000;9.432;2024-02-23T08:18:55;4.47;;;1.80;;
84893;SDS011;75409;50.000;9.432;2024-02-23T08:21:20;3.92;;;2.13;;
84893;SDS011;75409;50.000;9.432;2024-02-23T08:23:46;4.30;;;1.92;;
84893;SDS011;75409;50.000;9.432;2024-02-23T08:26:13;4.50;;;1.58;;
84893;SDS011;75409;50.000;9.432;2024-02-23T08:28:38;4.90;;;2.05;;
84893;SDS011;75409;50.000;9.432;2024-02-23T08:31:07;2.88;;;1.65;;
84893;SDS011;75409;50.000;9.432;2024-02-23T08:33:34;2.65;;;2.08;;
84893;SDS011;75409;50.000;9.432;2024-02-23T08:36:02;2.35;;;1.35;;
84893;SDS011;75409;50.000;9.432;2024-02-23T08:38:32;2.08;;;1.73;;
84893;SDS011;75409;50.000;9.432;2024-02-23T08:40:57;2.10;;;1.33;;
84893;SDS011;75409;50.000;9.432;2024-02-23T08:43:24;2.60;;;1.30;;
84893;SDS011;75409;50.000;9.432;2024-02-23T08:45:49;1.40;;;1.30;;
84893;SDS011;75409;50.000;9.432;2024-02-23T08:48:15;1.77;;;1.25;;
84893;SDS011;75409;50.000;9.432;2024-02-23T08:50:41;1.23;;;1.13;;
84893;SDS011;75409;50.000;9.432;2024-02-23T08:53:11;1.42;;;1.33;;
84893;SDS011;75409;50.000;9.432;2024-02-23T08:55:36;1.25;;;1.15;;
84893;SDS011;75409;50.000;9.432;2024-02-23T08:58:02;1.60;;;1.10;;
84893;SDS011;75409;50.000;9.432;2024-02-23T09:00:32;2.20;;;1.80;;
84893;SDS011;75409;50.000;9.432;2024-02-23T09:02:57;1.30;;;1.20;;
84893;SDS011;75409;50.000;9.432;2024-02-23T09:05:23;1.13;;;1.13;;
84893;SDS011;75409;50.000;9.432;2024-02-23T09:07:48;1.73;;;1.38;;
84893;SDS011;75409;50.000;9.432;2024-02-23T09:10:14;1.73;;;1.58;;
84893;SDS011;75409;50.000;9.432;2024-02-23T09:12:39;4.32;;;1.17;;
84893;SDS011;75409;50.000;9.432;2024-02-23T09:15:05;1.95;;;1.63;;
84893;SDS011;75409;50.000;9.432;2024-02-23T09:17:31;3.22;;;1.23;;
84893;SDS011;75409;50.000;9.432;2024-02-23T09:19:56;4.32;;;1.55;;
84893;SDS011;75409;50.000;9.432;2024-02-23T09:22:22;2.25;;;1.25;;
84893;SDS011;75409;50.000;9.432;2024-02-23T09:24:47;2.47;;;1.63;;
84893;SDS011;75409;50.000;9.432;2024-02-23T09:27:13;1.75;;;1.30;;
84893;SDS011;75409;50.000;9.432;2024-02-23T09:29:40;2.67;;;1.27;;
84893;SDS011;75409;50.000;9.432;2024-02-23T09:32:05;3.47;;;1.60;;
84893;SDS011;75409;50.000;9.432;2024-02-23T09:34:31;1.75;;;1.33;;
84893;SDS011;75409;50.000;9.432;2024-02-23T09:36:56;4.95;;;1.40;;
84893;SDS011;75409;50.000;9.432;2024-02-23T09:39:24;3.92;;;1.77;;
84893;SDS011;75409;50.000;9.432;2024-02-23T09:41:51;3.47;;;1.70;;
84893;SDS011;75409;50.000;9.432;2024-02-23T09:44:16;1.05;;;1.00;;
84893;SDS011;75409;50.000;9.432;2024-02-23T09:46:43;1.98;;;1.17;;
84893;SDS011;75409;50.000;9.432;2024-02-23T09:49:09;2.28;;;1.40;;
84893;SDS011;75409;50.000;9.432;2024-02-23T09:51:36;2.33;;;1.42;;
84893;SDS011;75409;50.000;9.432;2024-02-23T09:54:02;3.10;;;2.05;;
84893;SDS011;75409;50.000;9.432;2024-02-23T09:56:28;2.33;;;1.42;;
84893;SDS011;75409;50.000;9.432;2024-02-23T09:58:55;3.63;;;1.25;;
84893;SDS011;75409;50.000;9.432;2024-02-23T10:01:25;3.08;;;1.33;;
84893;SDS011;75409;50.000;9.432;2024-02-23T10:03:57;4.15;;;1.45;;
84893;SDS011;75409;50.000;9.432;2024-02-23T10:06:25;2.88;;;1.55;;
84893;SDS011;75409;50.000;9.432;2024-02-23T10:08:51;5.88;;;1.67;;
84893;SDS011;75409;50.000;9.432;2024-02-23T10:11:19;5.97;;;2.20;;
84893;SDS011;75409;50.000;9.432;2024-02-23T10:13:46;2.83;;;1.45;;
84893;SDS011;75409;50.000;9.432;2024-02-23T10:16:14;2.78;;;2.50;;
84893;SDS011;75409;50.000;9.432;2024-02-23T10:18:39;8.00;;;3.15;;
84893;SDS011;75409;50.000;9.432;2024-02-23T10:21:05;4.78;;;3.00;;
84893;SDS011;75409;50.000;9.432;2024-02-23T10:23:30;5.68;;;2.30;;
84893;SDS011;75409;50.000;9.432;2024-02-23T10:25:58;4.47;;;1.60;;
84893;SDS011;75409;50.000;9.432;2024-02-23T10:28:24;1.92;;;1.55;;
84893;SDS011;75409;50.000;9.432;2024-02-23T10:30:49;6.28;;;3.30;;
84893;SDS011;75409;50.000;9.432;2024-02-23T10:33:15;10.43;;;3.67;;
84893;SDS011;75409;50.000;9.432;2024-02-23T10:35:40;6.80;;;2.70;;
84893;SDS011;75409;50.000;9.432;2024-02-23T10:38:07;5.95;;;2.80;;
84893;SDS011;75409;50.000;9.432;2024-02-23T10:40:34;2.08;;;1.33;;
84893;SDS011;75409;50.000;9.432;2024-02-23T10:43:05;4.20;;;1.55;;
84893;SDS011;75409;50.000;9.432;2024-02-23T10:45:37;3.72;;;2.10;;
84893;SDS011;75409;50.000;9.432;2024-02-23T10:48:04;2.95;;;1.63;;
84893;SDS011;75409;50.000;9.432;2024-02-23T10:50:32;3.45;;;1.20;;
84893;SDS011;75409;50.000;9.432;2024-02-23T10:53:00;6.90;;;2.55;;
84893;SDS011;75409;50.000;9.432;2024-02-23T10:55:25;4.13;;;1.77;;
84893;SDS011;75409;50.000;9.432;2024-02-23T10:57:52;3.03;;;1.55;;
84893;SDS011;75409;50.000;9.432;2024-02-23T11:00:18;1.50;;;1.15;;
84893;SDS011;75409;50.000;9.432;2024-02-23T11:02:48;2.63;;;1.00;;
84893;SDS011;75409;50.000;9.432;2024-02-23T11:05:15;13.00;;;5.47;;
84893;SDS011;75409;50.000;9.432;2024-02-23T11:07:41;3.60;;;2.50;;
84893;SDS011;75409;50.000;9.432;2024-02-23T11:10:06;2.00;;;1.63;;
84893;SDS011;75409;50.000;9.432;2024-02-23T11:12:34;4.25;;;1.33;;
84893;SDS011;75409;50.000;9.432;2024-02-23T11:15:00;1.15;;;1.05;;
84893;SDS011;75409;50.000;9.432;2024-02-23T11:17:26;1.55;;;1.20;;
84893;SDS011;75409;50.000;9.432;2024-02-23T11:19:54;3.30;;;1.50;;
84893;SDS011;75409;50.000;9.432;2024-02-23T11:22:32;2.22;;;1.33;;
84893;SDS011;75409;50.000;9.432;2024-02-23T11:25:05;5.53;;;1.45;;
84893;SDS011;75409;50.000;9.432;2024-02-23T11:27:36;5.78;;;2.05;;
84893;SDS011;75409;50.000;9.432;2024-02-23T11:30:03;1.98;;;1.05;;
84893;SDS011;75409;50.000;9.432;2024-02-23T11:35:12;2.40;;;1.15;;
84893;SDS011;75409;50.000;9.432;2024-02-23T11:40:30;2.47;;;1.17;;
84893;SDS011;75409;50.000;9.432;2024-02-23T11:42:55;2.55;;;1.23;;
84893;SDS011;75409;50.000;9.432;2024-02-23T11:45:21;1.52;;;1.20;;
84893;SDS011;75409;50.000;9.432;2024-02-23T11:47:47;3.67;;;2.30;;
84893;SDS011;75409;50.000;9.432;2024-02-23T11:50:13;4.45;;;2.72;;
84893;SDS011;75409;50.000;9.432;2024-02-23T11:52:44;4.97;;;1.75;;
84893;SDS011;75409;50.000;9.432;2024-02-23T11:55:11;11.20;;;5.45;;
84893;SDS011;75409;50.000;9.432;2024-02-23T11:57:36;17.83;;;5.30;;
84893;SDS011;75409;50.000;9.432;2024-02-23T12:00:04;8.65;;;3.85;;
84893;SDS011;75409;50.000;9.432;2024-02-23T12:02:32;4.38;;;1.50;;
84893;SDS011;75409;50.000;9.432;2024-02-23T12:04:57;3.78;;;2.45;;
84893;SDS011;75409;50.000;9.432;2024-02-23T12:07:23;11.35;;;6.13;;
84893;SDS011;75409;50.000;9.432;2024-02-23T12:09:51;5.22;;;2.85;;
84893;SDS011;75409;50.000;9.432;2024-02-23T12:12:17;7.07;;;3.15;;
84893;SDS011;75409;50.000;9.432;2024-02-23T12:14:42;5.38;;;2.20;;
84893;SDS011;75409;50.000;9.432;2024-02-23T12:17:08;3.08;;;1.50;;
84893;SDS011;75409;50.000;9.432;2024-02-23T12:19:37;3.15;;;1.40;;
84893;SDS011;75409;50.000;9.432;2024-02-23T12:22:12;3.40;;;1.67;;
84893;SDS011;75409;50.000;9.432;2024-02-23T12:24:37;2.05;;;1.05;;
84893;SDS011;75409;50.000;9.432;2024-02-23T12:27:03;1.77;;;1.40;;
84893;SDS011;75409;50.000;9.432;2024-02-23T12:29:30;3.55;;;1.27;;
84893;SDS011;75409;50.000;9.432;2024-02-23T12:32:05;1.25;;;1.20;;
84893;SDS011;75409;50.000;9.432;2024-02-23T12:34:31;6.82;;;3.47;;
84893;SDS011;75409;50.000;9.432;2024-02-23T12:36:56;2.17;;;1.45;;
84893;SDS011;75409;50.000;9.432;2024-02-23T12:39:22;2.42;;;1.25;;
84893;SDS011;75409;50.000;9.432;2024-02-23T12:41:47;1.38;;;1.27;;
84893;SDS011;75409;50.000;9.432;2024-02-23T12:44:13;1.42;;;1.15;;
84893;SDS011;75409;50.000;9.432;2024-02-23T12:46:39;1.50;;;1.13;;
84893;SDS011;75409;50.000;9.432;2024-02-23T12:49:04;3.67;;;1.88;;
84893;SDS011;75409;50.000;9.432;2024-02-23T12:51:29;2.95;;;1.30;;
84893;SDS011;75409;50.000;9.432;2024-02-23T12:53:55;1.63;;;1.52;;
84893;SDS011;75409;50.000;9.432;2024-02-23T12:56:21;7.75;;;1.40;;
84893;SDS011;75409;50.000;9.432;2024-02-23T12:58:46;2.55;;;1.50;;
84893;SDS011;75409;50.000;9.432;2024-02-23T13:01:11;2.40;;;1.67;;
84893;SDS011;75409;50.000;9.432;2024-02-23T13:03:38;1.00;;;0.95;;
84893;SDS011;75409;50.000;9.432;2024-02-23T13:06:05;0.88;;;0.82;;
84893;SDS011;75409;50.000;9.432;2024-02-23T13:08:32;2.25;;;1.02;;
84893;SDS011;75409;50.000;9.432;2024-02-23T13:11:00;1.65;;;1.10;;
84893;SDS011;75409;50.000;9.432;2024-02-23T13:13:26;2.08;;;1.25;;
84893;SDS011;75409;50.000;9.432;2024-02-23T13:15:53;2.10;;;1.25;;
84893;SDS011;75409;50.000;9.432;2024-02-23T13:18:22;1.83;;;1.38;;
84893;SDS011;75409;50.000;9.432;2024-02-23T13:20:47;1.45;;;1.35;;
84893;SDS011;75409;50.000;9.432;2024-02-23T13:23:13;3.72;;;1.35;;
84893;SDS011;75409;50.000;9.432;2024-02-23T13:25:40;5.22;;;1.55;;
84893;SDS011;75409;50.000;9.432;2024-02-23T13:28:06;2.25;;;1.35;;
84893;SDS011;75409;50.000;9.432;2024-02-23T13:30:32;3.60;;;1.38;;
84893;SDS011;75409;50.000;9.432;2024-02-23T13:32:58;2.55;;;1.45;;
84893;SDS011;75409;50.000;9.432;2024-02-23T13:35:23;2.77;;;1.13;;
84893;SDS011;75409;50.000;9.432;2024-02-23T13:37:49;3.55;;;1.52;;
84893;SDS011;75409;50.000;9.432;2024-02-23T13:40:15;1.92;;;1.05;;
84893;SDS011;75409;50.000;9.432;2024-02-23T13:42:41;1.92;;;1.73;;
84893;SDS011;75409;50.000;9.432;2024-02-23T13:45:06;3.65;;;1.30;;
84893;SDS011;75409;50.000;9.432;2024-02-23T13:47:32;3.28;;;1.58;;
84893;SDS011;75409;50.000;9.432;2024-02-23T13:50:02;2.25;;;1.38;;
84893;SDS011;75409;50.000;9.432;2024-02-23T13:52:29;1.67;;;1.17;;
84893;SDS011;75409;50.000;9.432;2024-02-23T13:54:56;1.80;;;1.55;;
84893;SDS011;75409;50.000;9.432;2024-02-23T13:57:21;2.20;;;1.33;;
84893;SDS011;75409;50.000;9.432;2024-02-23T13:59:47;1.35;;;1.23;;
84893;SDS011;75409;50.000;9.432;2024-02-23T14:02:12;3.47;;;1.65;;
84893;SDS011;75409;50.000;9.432;2024-02-23T14:04:38;2.03;;;1.20;;
84893;SDS011;75409;50.000;9.432;2024-02-23T14:07:03;1.58;;;1.38;;
84893;SDS011;75409;50.000;9.432;2024-02-23T14:09:29;2.28;;;1.05;;
84893;SDS011;75409;50.000;9.432;2024-02-23T14:11:55;2.50;;;1.27;;
84893;SDS011;75409;50.000;9.432;2024-02-23T14:14:20;3.35;;;1.75;;
84893;SDS011;75409;50.000;9.432;2024-02-23T14:16:46;3.10;;;1.50;;
84893;SDS011;75409;50.000;9.432;2024-02-23T14:19:11;3.28;;;1.20;;
84893;SDS011;75409;50.000;9.432;2024-02-23T14:21:37;2.55;;;1.60;;
84893;SDS011;75409;50.000;9.432;2024-02-23T14:24:02;2.22;;;1.95;;
84893;SDS011;75409;50.000;9.432;2024-02-23T14:26:29;1.63;;;1.25;;
84893;SDS011;75409;50.000;9.432;2024-02-23T14:28:54;2.25;;;1.10;;
84893;SDS011;75409;50.000;9.432;2024-02-23T14:31:20;2.38;;;1.13;;
84893;SDS011;75409;50.000;9.432;2024-02-23T14:33:45;1.58;;;1.20;;
84893;SDS011;75409;50.000;9.432;2024-02-23T14:36:10;2.75;;;1.63;;
84893;SDS011;75409;50.000;9.432;2024-02-23T14:38:36;1.90;;;1.13;;
84893;SDS011;75409;50.000;9.432;2024-02-23T14:41:01;1.40;;;1.10;;
84893;SDS011;75409;50.000;9.432;2024-02-23T14:43:27;3.20;;;1.20;;
84893;SDS011;75409;50.000;9.432;2024-02-23T14:45:54;3.30;;;1.20;;